Cass City, Michigan
Current Conditions -  °F | °C
As of 2:55 PM on Wednesday 17 Dec 2014 (Local Time) from KBAX Reporting Station
Overcast Overcast  
Wind Chill: 19°   Ceiling: 1700
Heat Index: 31°   Visibility: 10mi
Dew Point: 28°   Wind: 17mph
Humidity: 88%   Direction: 270°W
Pressure: 29.98"   Gusts: 25mph
Location:  43.6°N, 83.17°W
Report Text: KBAX 171955Z AUTO 27015G22KT 10SM BKN017 OVC022 M01/M02 A2998 RMK AO2 T10061023
Loading
Personal Weather Stations






























Interactive Weather Map New forecast layout! Learn more

10-Day Weather Forecast

Advertisements
Track Severe Weather on mobile